createdAt,value
2017-12-17T00:01:35.539Z,30.83
2017-12-17T00:04:03.585Z,31.05
2017-12-17T00:06:32.393Z,33.40
2017-12-17T00:09:00.471Z,30.92
2017-12-17T00:11:28.533Z,30.92
2017-12-17T00:13:56.601Z,34.35
2017-12-17T00:16:24.648Z,29.65
2017-12-17T00:18:53.458Z,33.87
2017-12-17T00:21:22.281Z,33.83
2017-12-17T00:23:50.389Z,34.30
2017-12-17T00:26:18.518Z,35.80
2017-12-17T00:28:46.543Z,32.28
2017-12-17T00:31:14.558Z,35.60
2017-12-17T00:33:42.614Z,36.03
2017-12-17T00:36:10.712Z,36.00
2017-12-17T00:38:38.758Z,32.42
2017-12-17T00:41:06.800Z,30.20
2017-12-17T00:43:34.808Z,36.38
2017-12-17T00:46:02.800Z,31.92
2017-12-17T00:48:30.908Z,36.70
2017-12-17T00:50:58.970Z,29.42
2017-12-17T00:53:26.981Z,32.75
2017-12-17T00:55:55.010Z,36.17
2017-12-17T00:58:23.070Z,39.58
2017-12-17T01:00:51.145Z,32.90
2017-12-17T01:03:19.252Z,38.80
2017-12-17T01:05:48.009Z,35.50
2017-12-17T01:08:16.056Z,31.67
2017-12-17T01:10:44.075Z,37.80
2017-12-17T01:13:12.870Z,38.80
2017-12-17T01:15:41.750Z,37.10
2017-12-17T01:18:10.569Z,35.35
2017-12-17T01:20:38.560Z,40.20
2017-12-17T01:23:06.556Z,39.97
2017-12-17T01:25:34.602Z,39.80
2017-12-17T01:28:02.602Z,37.03
2017-12-17T01:30:30.610Z,37.20
2017-12-17T01:32:58.610Z,37.30
2017-12-17T01:35:26.605Z,37.97
2017-12-17T01:37:54.651Z,34.42
2017-12-17T01:40:22.718Z,43.42
2017-12-17T01:42:50.776Z,38.70
2017-12-17T01:45:18.839Z,35.08
2017-12-17T01:47:46.915Z,36.28
2017-12-17T01:50:14.990Z,39.33
2017-12-17T01:52:43.075Z,42.70
2017-12-17T01:55:11.106Z,48.38
2017-12-17T01:57:39.948Z,41.08
2017-12-17T02:00:08.080Z,40.50
2017-12-17T02:02:36.922Z,38.50
2017-12-17T02:05:04.989Z,44.57
2017-12-17T02:07:33.059Z,39.57
2017-12-17T02:10:01.139Z,43.60
2017-12-17T02:12:29.241Z,47.47
2017-12-17T02:14:57.359Z,48.70
2017-12-17T02:17:25.438Z,49.35
2017-12-17T02:19:53.478Z,50.17
2017-12-17T02:22:21.585Z,47.72
2017-12-17T02:24:49.695Z,46.22
2017-12-17T02:27:17.774Z,44.42
2017-12-17T02:29:45.893Z,48.15
2017-12-17T02:32:13.972Z,52.80
2017-12-17T02:34:42.094Z,45.20
2017-12-17T02:37:10.927Z,53.50
2017-12-17T02:39:39.043Z,51.22
2017-12-17T02:42:07.168Z,47.15
2017-12-17T02:44:35.251Z,55.10
2017-12-17T02:47:03.479Z,48.42
2017-12-17T02:49:32.335Z,55.90
2017-12-17T02:52:00.424Z,54.00
2017-12-17T02:54:28.590Z,53.47
2017-12-17T02:56:56.728Z,64.65
2017-12-17T02:59:24.810Z,65.95
2017-12-17T03:01:52.934Z,61.85
2017-12-17T03:04:21.830Z,63.67
2017-12-17T03:06:50.676Z,60.50
2017-12-17T03:09:18.782Z,56.13
2017-12-17T03:11:47.119Z,53.27
2017-12-17T03:14:15.215Z,61.45
2017-12-17T03:16:43.307Z,59.83
2017-12-17T03:19:12.190Z,68.70
2017-12-17T03:21:40.263Z,67.25
2017-12-17T03:24:08.354Z,68.90
2017-12-17T03:26:37.214Z,75.82
2017-12-17T03:29:05.291Z,66.37
2017-12-17T03:31:33.415Z,70.43
2017-12-17T03:34:01.531Z,63.50
2017-12-17T03:36:29.624Z,68.23
2017-12-17T03:38:57.781Z,66.50
2017-12-17T03:41:25.874Z,60.80
2017-12-17T03:43:54.735Z,68.70
2017-12-17T03:46:22.842Z,67.45
2017-12-17T03:48:51.695Z,60.83
2017-12-17T03:51:19.770Z,73.55
2017-12-17T03:53:47.848Z,65.70
2017-12-17T03:56:15.929Z,62.35
2017-12-17T03:58:44.027Z,64.60
2017-12-17T04:01:12.865Z,61.85
2017-12-17T04:03:41.002Z,67.57
2017-12-17T04:06:09.299Z,67.35
2017-12-17T04:08:37.401Z,65.47
2017-12-17T04:11:05.510Z,70.95
2017-12-17T04:13:33.595Z,57.85
2017-12-17T04:16:01.671Z,70.57
2017-12-17T04:18:29.723Z,64.15
2017-12-17T04:20:58.602Z,60.95
2017-12-17T04:23:27.452Z,61.85
2017-12-17T04:25:55.541Z,63.70
2017-12-17T04:28:23.630Z,58.33
2017-12-17T04:30:51.662Z,52.67
2017-12-17T04:33:19.762Z,47.25
2017-12-17T04:35:47.864Z,53.40
2017-12-17T04:38:16.723Z,48.75
2017-12-17T04:40:44.815Z,57.90
2017-12-17T04:43:13.657Z,46.78
2017-12-17T04:45:41.746Z,55.80
2017-12-17T04:48:09.841Z,46.50
2017-12-17T04:50:37.916Z,47.42
2017-12-17T04:53:06.042Z,50.97
2017-12-17T04:55:34.146Z,48.72
2017-12-17T04:58:02.234Z,46.78
2017-12-17T05:00:31.091Z,44.75
2017-12-17T05:02:59.159Z,40.97
2017-12-17T05:05:27.222Z,42.30
2017-12-17T05:07:55.321Z,45.78
2017-12-17T05:10:23.415Z,39.95
2017-12-17T05:12:52.269Z,39.53
2017-12-17T05:15:20.389Z,33.47
2017-12-17T05:17:49.266Z,37.05
2017-12-17T05:20:17.366Z,29.33
2017-12-17T05:22:45.437Z,27.73
2017-12-17T05:25:13.487Z,31.35
2017-12-17T05:27:42.386Z,27.60
2017-12-17T05:30:11.226Z,27.33
2017-12-17T05:32:39.286Z,26.73
2017-12-17T05:35:07.324Z,29.77
2017-12-17T05:37:35.430Z,26.12
2017-12-17T05:40:03.527Z,28.00
2017-12-17T05:42:31.648Z,24.77
2017-12-17T05:44:59.788Z,30.42
2017-12-17T05:47:27.888Z,28.02
2017-12-17T05:49:55.932Z,23.25
2017-12-17T05:52:24.019Z,23.33
2017-12-17T05:54:52.866Z,22.25
2017-12-17T05:57:20.958Z,27.75
2017-12-17T05:59:49.042Z,26.92
2017-12-17T06:02:17.118Z,21.40
2017-12-17T06:04:45.962Z,24.02
2017-12-17T06:07:14.042Z,24.55
2017-12-17T06:09:42.091Z,25.12
2017-12-17T06:12:10.187Z,26.50
2017-12-17T06:14:38.288Z,19.23
2017-12-17T06:17:06.372Z,20.35
2017-12-17T06:19:35.173Z,23.42
2017-12-17T06:22:04.031Z,21.62
2017-12-17T06:24:32.171Z,24.05
2017-12-17T06:27:00.235Z,16.87
2017-12-17T06:29:28.327Z,21.10
2017-12-17T06:31:56.407Z,23.25
2017-12-17T06:34:24.467Z,22.98
2017-12-17T06:36:52.567Z,20.37
2017-12-17T06:39:20.650Z,21.98
2017-12-17T06:41:48.702Z,18.33
2017-12-17T06:44:16.756Z,20.00
2017-12-17T06:46:44.834Z,17.25
2017-12-17T06:49:12.930Z,19.83
2017-12-17T06:51:41.022Z,18.73
2017-12-17T06:54:09.856Z,18.80
2017-12-17T06:56:37.886Z,19.23
2017-12-17T06:59:06.769Z,19.58
2017-12-17T07:01:35.641Z,18.02
2017-12-17T07:04:03.723Z,18.08
2017-12-17T07:06:32.686Z,18.25
2017-12-17T07:09:00.743Z,20.20
2017-12-17T07:11:28.823Z,20.70
2017-12-17T07:13:56.919Z,18.75
2017-12-17T07:16:24.991Z,19.85
2017-12-17T07:18:53.479Z,20.90
2017-12-17T07:21:21.903Z,16.85
2017-12-17T07:23:50.297Z,17.75
2017-12-17T07:26:19.173Z,15.00
2017-12-17T07:28:47.270Z,15.73
2017-12-17T07:31:15.407Z,17.10
2017-12-17T07:33:43.502Z,18.35
2017-12-17T07:36:11.638Z,16.90
2017-12-17T07:38:40.459Z,18.75
2017-12-17T07:41:08.551Z,16.00
2017-12-17T07:43:36.656Z,15.50
2017-12-17T07:46:04.735Z,15.65
2017-12-17T07:48:33.589Z,12.18
2017-12-17T07:51:01.656Z,15.25
2017-12-17T07:53:29.723Z,18.20
2017-12-17T07:55:58.698Z,13.38
2017-12-17T07:58:26.791Z,14.50
2017-12-17T08:00:54.844Z,15.02
2017-12-17T08:03:22.941Z,13.45
2017-12-17T08:05:51.048Z,65.62
2017-12-17T08:08:19.906Z,68.30
2017-12-17T08:10:48.010Z,31.80
2017-12-17T08:13:16.869Z,21.15
2017-12-17T08:15:44.930Z,16.55
2017-12-17T08:18:13.044Z,15.33
2017-12-17T08:20:41.882Z,20.33
2017-12-17T08:23:09.954Z,14.67
2017-12-17T08:25:38.032Z,17.17
2017-12-17T08:28:06.142Z,17.03
2017-12-17T08:30:34.200Z,15.13
2017-12-17T08:33:02.288Z,26.13
2017-12-17T08:35:30.381Z,22.73
2017-12-17T08:37:59.236Z,25.40
2017-12-17T08:40:27.309Z,20.12
2017-12-17T08:42:56.315Z,48.43
2017-12-17T08:45:24.362Z,32.92
2017-12-17T08:47:52.450Z,19.58
2017-12-17T08:50:20.946Z,19.67
2017-12-17T08:52:49.806Z,17.62
2017-12-17T08:55:17.899Z,18.35
2017-12-17T08:57:46.258Z,20.10
2017-12-17T09:00:14.357Z,19.85
2017-12-17T09:02:42.459Z,15.52
2017-12-17T09:05:10.536Z,17.45
2017-12-17T09:07:38.647Z,20.27
2017-12-17T09:10:06.726Z,17.55
2017-12-17T09:12:34.843Z,18.23
2017-12-17T09:15:03.674Z,17.42
2017-12-17T09:17:31.793Z,20.37
2017-12-17T09:20:00.599Z,20.30
2017-12-17T09:22:28.709Z,19.75
2017-12-17T09:24:56.782Z,16.97
2017-12-17T09:27:24.859Z,21.00
2017-12-17T09:29:53.912Z,19.60
2017-12-17T09:32:21.975Z,17.75
2017-12-17T09:34:50.778Z,19.33
2017-12-17T09:37:18.826Z,22.73
2017-12-17T09:39:47.674Z,20.70
2017-12-17T09:42:16.956Z,20.87
2017-12-17T09:44:46.340Z,19.70
2017-12-17T09:47:14.475Z,26.33
2017-12-17T09:49:42.512Z,23.23
2017-12-17T09:52:10.594Z,19.90
2017-12-17T09:54:38.741Z,20.17
2017-12-17T09:57:06.833Z,20.03
2017-12-17T09:59:36.166Z,21.80
2017-12-17T10:02:04.347Z,19.67
2017-12-17T10:04:32.416Z,19.20
2017-12-17T10:07:00.502Z,17.30
2017-12-17T10:09:29.320Z,19.47
2017-12-17T10:11:57.414Z,16.80
2017-12-17T10:14:25.509Z,18.27
2017-12-17T10:16:53.626Z,17.20
2017-12-17T10:19:21.727Z,14.40
2017-12-17T10:21:49.856Z,16.67
2017-12-17T10:24:18.734Z,22.60
2017-12-17T10:26:46.821Z,60.37
2017-12-17T10:29:15.795Z,20.50
2017-12-17T10:31:43.999Z,19.60
2017-12-17T10:34:12.072Z,20.57
2017-12-17T10:36:40.175Z,27.70
2017-12-17T10:39:08.223Z,25.77
2017-12-17T10:41:36.420Z,29.47
2017-12-17T10:44:04.562Z,32.00
2017-12-17T10:46:33.435Z,19.83
2017-12-17T10:49:02.524Z,18.00
2017-12-17T10:51:30.564Z,25.37
2017-12-17T10:53:58.682Z,21.53
2017-12-17T10:56:27.542Z,19.33
2017-12-17T10:58:55.693Z,21.43
2017-12-17T11:01:23.793Z,23.00
2017-12-17T11:03:51.945Z,23.27
2017-12-17T11:06:20.019Z,22.87
2017-12-17T11:08:48.086Z,27.47
2017-12-17T11:11:16.188Z,45.47
2017-12-17T11:13:44.279Z,23.40
2017-12-17T11:16:13.110Z,26.80
2017-12-17T11:18:41.270Z,36.73
2017-12-17T11:21:09.330Z,25.03
2017-12-17T11:23:37.402Z,25.20
2017-12-17T11:26:05.493Z,27.93
2017-12-17T11:28:33.566Z,46.30
2017-12-17T11:31:01.647Z,46.40
2017-12-17T11:33:29.707Z,55.40
2017-12-17T11:35:57.787Z,39.30
2017-12-17T11:38:25.905Z,37.60
2017-12-17T11:40:54.003Z,28.00
2017-12-17T11:43:22.094Z,32.90
2017-12-17T11:45:52.148Z,33.30
2017-12-17T11:48:20.272Z,40.00
2017-12-17T11:50:48.383Z,45.00
2017-12-17T11:53:16.469Z,37.50
2017-12-17T11:55:44.594Z,43.95
2017-12-17T11:58:12.699Z,28.85
2017-12-17T12:00:40.786Z,49.10
2017-12-17T12:03:08.887Z,93.12
2017-12-17T12:05:37.683Z,91.40
2017-12-17T12:08:05.806Z,43.58
2017-12-17T12:10:33.910Z,31.70
2017-12-17T12:13:02.834Z,34.55
2017-12-17T12:15:31.367Z,29.30
2017-12-17T12:17:59.639Z,257.12
2017-12-17T12:20:27.711Z,46.25
2017-12-17T12:22:55.819Z,34.10
2017-12-17T12:25:24.663Z,39.92
2017-12-17T12:28:01.807Z,25.60
2017-12-17T12:30:29.924Z,21.52
2017-12-17T12:32:58.012Z,27.13
2017-12-17T12:35:26.093Z,22.27
2017-12-17T12:37:54.983Z,20.25
2017-12-17T12:40:23.058Z,18.20
2017-12-17T12:42:51.890Z,20.58
2017-12-17T12:45:19.991Z,20.65
2017-12-17T12:47:48.094Z,22.03
2017-12-17T12:50:16.956Z,30.58
2017-12-17T12:52:45.023Z,32.72
2017-12-17T12:55:13.031Z,22.90
2017-12-17T12:57:41.863Z,24.77
2017-12-17T13:00:10.000Z,24.42
2017-12-17T13:02:38.871Z,19.25
2017-12-17T13:05:06.929Z,23.30
2017-12-17T13:07:35.038Z,26.58
2017-12-17T13:10:03.899Z,23.42
2017-12-17T13:12:31.991Z,22.35
2017-12-17T13:15:00.826Z,23.35
2017-12-17T13:17:28.935Z,25.17
2017-12-17T13:19:57.046Z,22.98
2017-12-17T13:22:25.900Z,26.60
2017-12-17T13:24:53.962Z,28.80
2017-12-17T13:27:22.097Z,31.33
2017-12-17T13:29:50.210Z,29.37
2017-12-17T13:32:18.293Z,31.85
2017-12-17T13:34:46.405Z,26.57
2017-12-17T13:37:14.506Z,29.58
2017-12-17T13:39:42.594Z,32.83
2017-12-17T13:42:10.662Z,27.40
2017-12-17T13:44:38.726Z,25.67
2017-12-17T13:47:06.832Z,25.30
2017-12-17T13:49:34.930Z,31.63
2017-12-17T13:52:03.030Z,32.80
2017-12-17T13:54:31.040Z,25.60
2017-12-17T13:56:59.106Z,23.37
2017-12-17T13:59:27.154Z,21.97
2017-12-17T14:01:55.228Z,27.23
2017-12-17T14:04:23.350Z,26.02
2017-12-17T14:06:52.199Z,21.33
2017-12-17T14:09:20.298Z,23.80
2017-12-17T14:11:49.157Z,22.08
2017-12-17T14:14:17.280Z,25.00
2017-12-17T14:16:45.383Z,26.27
2017-12-17T14:19:13.436Z,25.85
2017-12-17T14:21:41.527Z,21.17
2017-12-17T14:24:09.632Z,26.48
2017-12-17T14:26:37.689Z,23.52
2017-12-17T14:29:05.750Z,24.67
2017-12-17T14:31:34.085Z,23.02
2017-12-17T14:34:02.135Z,23.02
2017-12-17T14:36:30.287Z,24.60
2017-12-17T14:39:09.605Z,21.53
2017-12-17T14:41:38.522Z,21.33
2017-12-17T14:44:06.611Z,29.37
2017-12-17T14:46:35.472Z,23.40
2017-12-17T14:49:03.573Z,23.10
2017-12-17T14:51:31.662Z,21.87
2017-12-17T14:54:00.519Z,24.60
2017-12-17T14:56:28.704Z,23.75
2017-12-17T14:58:56.826Z,32.78
2017-12-17T15:01:24.938Z,22.40
2017-12-17T15:03:53.050Z,21.77
2017-12-17T15:06:21.892Z,29.02
2017-12-17T15:08:49.997Z,22.92
2017-12-17T15:11:18.068Z,21.37
2017-12-17T15:13:46.908Z,21.67
2017-12-17T15:16:15.047Z,25.55
2017-12-17T15:18:43.919Z,25.10
2017-12-17T15:21:12.002Z,27.80
2017-12-17T15:23:40.911Z,26.00
2017-12-17T15:26:08.994Z,24.27
2017-12-17T15:28:37.089Z,25.88
2017-12-17T15:31:05.217Z,24.52
2017-12-17T15:33:34.066Z,26.70
2017-12-17T15:36:02.164Z,25.10
2017-12-17T15:38:30.255Z,20.67
2017-12-17T15:40:59.003Z,26.90
2017-12-17T15:43:27.081Z,26.00
2017-12-17T15:45:55.178Z,30.12
2017-12-17T15:48:24.030Z,22.00
2017-12-17T15:50:52.056Z,24.65
2017-12-17T15:53:21.292Z,30.55
2017-12-17T15:55:49.390Z,22.60
2017-12-17T15:58:17.432Z,26.70
2017-12-17T16:00:45.522Z,28.85
2017-12-17T16:03:13.582Z,31.98
2017-12-17T16:05:41.688Z,25.40
2017-12-17T16:08:09.814Z,29.60
2017-12-17T16:10:37.972Z,24.65
2017-12-17T16:13:06.034Z,27.67
2017-12-17T16:15:34.137Z,33.92
2017-12-17T16:18:02.243Z,27.27
2017-12-17T16:20:30.334Z,25.33
2017-12-17T16:22:59.165Z,26.75
2017-12-17T16:25:27.239Z,23.75
2017-12-17T16:27:56.207Z,27.40
2017-12-17T16:30:24.351Z,28.50
2017-12-17T16:32:52.584Z,29.40
2017-12-17T16:35:20.633Z,32.05
2017-12-17T16:37:48.639Z,20.23
2017-12-17T16:40:16.651Z,28.52
2017-12-17T16:42:46.311Z,28.02
2017-12-17T16:45:14.412Z,25.00
2017-12-17T16:47:42.416Z,24.00
2017-12-17T16:50:11.219Z,30.65
2017-12-17T16:52:39.292Z,20.33
2017-12-17T16:55:08.298Z,27.37
2017-12-17T16:57:36.291Z,30.48
2017-12-17T17:00:04.332Z,27.50
2017-12-17T17:02:32.520Z,24.92
2017-12-17T17:05:00.607Z,30.25
2017-12-17T17:07:29.707Z,29.15
2017-12-17T17:09:58.522Z,31.45
2017-12-17T17:12:26.531Z,32.25
2017-12-17T17:14:54.595Z,29.23
2017-12-17T17:17:23.433Z,30.00
2017-12-17T17:19:51.426Z,34.25
2017-12-17T17:22:20.218Z,30.02
2017-12-17T17:24:48.999Z,27.70
2017-12-17T17:27:17.039Z,27.73
2017-12-17T17:29:45.076Z,26.42
2017-12-17T17:32:13.118Z,30.83
2017-12-17T17:34:41.910Z,26.83
2017-12-17T17:37:10.710Z,25.83
2017-12-17T17:39:39.531Z,27.77
2017-12-17T17:42:08.454Z,23.10
2017-12-17T17:44:36.555Z,31.62
2017-12-17T17:47:05.537Z,26.08
2017-12-17T17:49:33.555Z,29.10
2017-12-17T17:52:01.634Z,29.60
2017-12-17T17:54:29.686Z,27.20
2017-12-17T17:56:57.745Z,25.55
2017-12-17T17:59:25.746Z,27.40
2017-12-17T18:01:53.767Z,26.52
2017-12-17T18:04:22.602Z,25.10
2017-12-17T18:06:51.004Z,31.75
2017-12-17T18:09:19.968Z,31.20
2017-12-17T18:11:48.845Z,34.78
2017-12-17T18:14:16.873Z,29.85
2017-12-17T18:16:44.887Z,28.05
2017-12-17T18:19:12.935Z,26.90
2017-12-17T18:21:41.706Z,26.60
2017-12-17T18:24:10.154Z,26.15
2017-12-17T18:26:38.202Z,22.92
2017-12-17T18:29:06.401Z,34.63
2017-12-17T18:31:34.471Z,27.67
2017-12-17T18:34:02.519Z,27.70
2017-12-17T18:36:30.521Z,34.20
2017-12-17T18:38:58.512Z,25.02
2017-12-17T18:41:26.619Z,30.95
2017-12-17T18:43:55.351Z,28.85
2017-12-17T18:46:23.412Z,26.70
2017-12-17T18:48:51.446Z,30.33
2017-12-17T18:51:20.229Z,26.67
2017-12-17T18:53:49.036Z,25.92
2017-12-17T18:56:17.090Z,25.52
2017-12-17T18:58:45.838Z,24.20
2017-12-17T19:01:13.947Z,28.85
2017-12-17T19:03:42.759Z,25.60
2017-12-17T19:06:10.832Z,24.25
2017-12-17T19:08:38.823Z,28.60
2017-12-17T19:11:06.834Z,24.05
2017-12-17T19:13:35.000Z,25.98
2017-12-17T19:16:03.099Z,23.62
2017-12-17T19:18:31.918Z,24.30
2017-12-17T19:20:59.938Z,22.10
2017-12-17T19:23:28.054Z,25.45
2017-12-17T19:25:56.105Z,26.90
2017-12-17T19:28:24.874Z,31.23
2017-12-17T19:30:53.010Z,21.55
2017-12-17T19:33:21.055Z,26.70
2017-12-17T19:35:49.067Z,20.62
2017-12-17T19:38:17.064Z,22.50
2017-12-17T19:40:45.081Z,21.25
2017-12-17T19:43:13.258Z,22.75
2017-12-17T19:45:41.237Z,23.10
2017-12-17T19:48:09.867Z,19.75
2017-12-17T19:50:38.627Z,22.33
2017-12-17T19:53:06.602Z,20.50
2017-12-17T19:55:34.649Z,24.67
2017-12-17T19:58:02.733Z,21.40
2017-12-17T20:00:30.761Z,21.67
2017-12-17T20:02:58.802Z,30.12
2017-12-17T20:05:26.807Z,19.83
2017-12-17T20:07:54.804Z,22.27
2017-12-17T20:10:22.799Z,25.83
2017-12-17T20:12:50.782Z,21.67
2017-12-17T20:15:19.567Z,19.85
2017-12-17T20:17:47.563Z,20.83
2017-12-17T20:20:16.392Z,22.05
2017-12-17T20:22:44.430Z,18.92
2017-12-17T20:25:12.482Z,19.45
2017-12-17T20:27:41.306Z,23.65
2017-12-17T20:30:09.370Z,16.77
2017-12-17T20:32:37.350Z,21.12
2017-12-17T20:35:05.346Z,21.58
2017-12-17T20:37:33.427Z,19.27
2017-12-17T20:40:01.410Z,21.55
2017-12-17T20:42:29.402Z,17.27
2017-12-17T20:44:58.194Z,19.15
2017-12-17T20:47:26.982Z,24.37
2017-12-17T20:49:55.726Z,23.65
2017-12-17T20:52:23.722Z,16.87
2017-12-17T20:54:51.751Z,21.40
2017-12-17T20:57:19.754Z,23.10
2017-12-17T20:59:47.744Z,23.17
2017-12-17T21:02:16.524Z,21.08
2017-12-17T21:04:45.274Z,21.48
2017-12-17T21:07:13.241Z,14.98
2017-12-17T21:09:41.257Z,21.20
2017-12-17T21:12:10.099Z,21.17
2017-12-17T21:14:38.090Z,16.20
2017-12-17T21:17:06.071Z,16.15
2017-12-17T21:19:34.066Z,24.63
2017-12-17T21:22:02.859Z,18.20
2017-12-17T21:24:30.910Z,21.58
2017-12-17T21:26:59.747Z,23.15
2017-12-17T21:29:27.759Z,16.98
2017-12-17T21:31:55.780Z,17.35
2017-12-17T21:34:24.698Z,20.75
2017-12-17T21:36:53.523Z,17.67
2017-12-17T21:39:22.294Z,17.65
2017-12-17T21:41:50.287Z,18.83
2017-12-17T21:44:19.031Z,14.90
2017-12-17T21:46:47.041Z,19.55
2017-12-17T21:49:15.798Z,20.25
2017-12-17T21:51:43.803Z,19.62
2017-12-17T21:54:12.552Z,19.65
2017-12-17T21:56:40.550Z,17.05
2017-12-17T21:59:08.553Z,19.42
2017-12-17T22:01:36.556Z,18.05
2017-12-17T22:04:04.535Z,22.62
2017-12-17T22:06:32.513Z,21.73
2017-12-17T22:09:00.517Z,21.65
2017-12-17T22:11:28.564Z,17.77
2017-12-17T22:13:56.528Z,20.98
2017-12-17T22:16:24.524Z,17.40
2017-12-17T22:18:53.325Z,16.73
2017-12-17T22:21:21.351Z,21.12
2017-12-17T22:23:49.333Z,17.33
2017-12-17T22:26:17.331Z,19.55
2017-12-17T22:28:46.071Z,17.60
2017-12-17T22:31:14.097Z,16.37
2017-12-17T22:33:42.103Z,19.83
2017-12-17T22:36:10.105Z,17.85
2017-12-17T22:38:38.130Z,20.08
2017-12-17T22:41:06.137Z,22.37
2017-12-17T22:43:34.154Z,16.48
2017-12-17T22:46:02.656Z,19.40
2017-12-17T22:48:31.383Z,20.85
2017-12-17T22:50:59.428Z,17.23
2017-12-17T22:53:27.459Z,16.65
2017-12-17T22:55:55.464Z,16.08
2017-12-17T22:58:23.483Z,20.95
2017-12-17T23:00:52.275Z,14.87
2017-12-17T23:03:21.028Z,20.88
2017-12-17T23:05:49.029Z,18.42
2017-12-17T23:08:17.799Z,14.73
2017-12-17T23:10:45.807Z,19.85
2017-12-17T23:13:13.852Z,19.05
2017-12-17T23:15:42.667Z,21.75
2017-12-17T23:18:10.702Z,21.67
2017-12-17T23:20:38.757Z,20.33
2017-12-17T23:23:06.787Z,18.35
2017-12-17T23:25:34.906Z,18.98
2017-12-17T23:28:02.943Z,17.45
2017-12-17T23:30:31.046Z,20.02
2017-12-17T23:32:59.082Z,22.00
2017-12-17T23:35:27.050Z,19.80
2017-12-17T23:37:55.064Z,19.50
2017-12-17T23:40:23.080Z,16.87
2017-12-17T23:42:51.113Z,18.87
2017-12-17T23:45:19.126Z,16.05
2017-12-17T23:47:47.178Z,16.15
2017-12-17T23:50:15.954Z,16.87
2017-12-17T23:52:44.740Z,17.73
2017-12-17T23:55:13.542Z,17.65
2017-12-17T23:57:42.319Z,14.87
